Sutton, North Dakota
Current Conditions -  °F | °C
As of 12:15 AM on Thursday 23 Oct 2014 (Local Time) from K46D Reporting Station
Overcast Overcast  
Wind Chill: 50°   Ceiling: 7000
Heat Index: 50°   Visibility: 10mi
Dew Point: 48°   Wind: 7mph
Humidity: 94%   Direction: 240°WSW
Pressure: 29.88"   Gusts: NA
Location:  47.4°N, 98.44°W
Report Text: K46D 230515Z AUTO 24006KT 10SM OVC070 10/09 A2988 RMK AO2
Loading
Personal Weather Stations






























Interactive Weather Map
Tropical Storm Tracking
New forecast layout! Learn more

10-Day Weather Forecast

Advertisements
Track Severe Weather on mobile